createdAt,value
2017-07-12T00:00:20.089Z,0
2017-07-12T00:01:19.760Z,0
2017-07-12T00:02:20.061Z,0
2017-07-12T00:03:20.043Z,0
2017-07-12T00:04:20.029Z,0
2017-07-12T00:05:20.017Z,0
2017-07-12T00:06:19.995Z,0
2017-07-12T00:07:20.000Z,0
2017-07-12T00:08:20.040Z,0
2017-07-12T00:09:19.729Z,0
2017-07-12T00:10:19.651Z,0
2017-07-12T00:11:19.955Z,0
2017-07-12T00:12:19.632Z,0
2017-07-12T00:13:19.939Z,0
2017-07-12T00:14:19.916Z,0
2017-07-12T00:15:19.892Z,0
2017-07-12T00:16:19.894Z,0
2017-07-12T00:17:19.873Z,0
2017-07-12T00:18:19.880Z,0
2017-07-12T00:19:19.854Z,0
2017-07-12T00:20:19.535Z,0
2017-07-12T00:21:19.840Z,0
2017-07-12T00:22:19.510Z,0
2017-07-12T00:23:18.879Z,0
2017-07-12T00:24:19.688Z,0
2017-07-12T00:25:19.800Z,0
2017-07-12T00:26:19.470Z,0
2017-07-12T00:27:19.457Z,0
2017-07-12T00:28:19.442Z,0
2017-07-12T00:29:19.967Z,0
2017-07-12T00:30:19.946Z,0
2017-07-12T00:31:33.675Z,0
2017-07-12T00:32:19.704Z,0
2017-07-12T00:33:19.702Z,0
2017-07-12T00:34:19.688Z,0
2017-07-12T00:35:19.065Z,0
2017-07-12T00:36:19.663Z,0
2017-07-12T00:37:19.646Z,0
2017-07-12T00:38:19.647Z,0
2017-07-12T00:39:19.322Z,0
2017-07-12T00:40:19.310Z,0
2017-07-12T00:41:19.300Z,0
2017-07-12T00:42:19.277Z,0
2017-07-12T00:43:19.276Z,0
2017-07-12T00:44:19.273Z,0
2017-07-12T00:45:19.559Z,0
2017-07-12T00:46:19.239Z,0
2017-07-12T00:47:19.549Z,0
2017-07-12T00:48:19.223Z,0
2017-07-12T00:49:18.894Z,0
2017-07-12T00:50:19.516Z,0
2017-07-12T00:51:19.513Z,0
2017-07-12T00:52:19.478Z,0
2017-07-12T00:53:19.179Z,0
2017-07-12T00:54:19.468Z,0
2017-07-12T00:55:19.142Z,0
2017-07-12T00:56:19.147Z,0
2017-07-12T00:57:19.422Z,0
2017-07-12T00:58:18.798Z,0
2017-07-12T00:59:19.405Z,0
2017-07-12T01:00:19.394Z,0
2017-07-12T01:01:19.383Z,0
2017-07-12T01:02:19.376Z,0
2017-07-12T01:03:19.078Z,0
2017-07-12T01:04:19.344Z,0
2017-07-12T01:05:18.718Z,0
2017-07-12T01:06:18.705Z,0
2017-07-12T01:07:18.998Z,0
2017-07-12T01:08:19.295Z,0
2017-07-12T01:09:19.290Z,0
2017-07-12T01:10:19.277Z,0
2017-07-12T01:11:19.275Z,0
2017-07-12T01:12:19.265Z,0
2017-07-12T01:13:18.929Z,0
2017-07-12T01:14:19.233Z,0
2017-07-12T01:15:19.223Z,0
2017-07-12T01:16:19.200Z,0
2017-07-12T01:17:19.197Z,0
2017-07-12T01:18:18.867Z,0
2017-07-12T01:19:18.861Z,0
2017-07-12T01:20:18.852Z,0
2017-07-12T01:21:19.149Z,0
2017-07-12T01:22:18.822Z,0
2017-07-12T01:23:18.196Z,0
2017-07-12T01:24:19.171Z,0
2017-07-12T01:25:19.102Z,0
2017-07-12T01:26:18.783Z,0
2017-07-12T01:27:19.087Z,0
2017-07-12T01:28:19.075Z,0
2017-07-12T01:29:19.051Z,0
2017-07-12T01:30:19.055Z,0
2017-07-12T01:31:19.033Z,0
2017-07-12T01:32:19.040Z,0
2017-07-12T01:33:19.018Z,0
2017-07-12T01:34:19.001Z,0
2017-07-12T01:35:18.988Z,0
2017-07-12T01:36:18.988Z,0
2017-07-12T01:37:18.971Z,0
2017-07-12T01:38:18.650Z,0
2017-07-12T01:39:18.954Z,0
2017-07-12T01:40:18.625Z,0
2017-07-12T01:41:18.937Z,0
2017-07-12T01:42:18.919Z,0
2017-07-12T01:43:18.593Z,0
2017-07-12T01:44:18.890Z,0
2017-07-12T01:45:18.876Z,0
2017-07-12T01:46:18.547Z,0
2017-07-12T01:47:18.848Z,0
2017-07-12T01:48:18.529Z,0
2017-07-12T01:49:18.834Z,0
2017-07-12T01:50:18.821Z,0
2017-07-12T01:51:18.822Z,0
2017-07-12T01:52:18.489Z,0
2017-07-12T01:53:18.472Z,0
2017-07-12T01:54:18.783Z,0
2017-07-12T01:55:18.752Z,0
2017-07-12T01:56:18.747Z,0
2017-07-12T01:57:18.738Z,0
2017-07-12T01:58:18.730Z,0
2017-07-12T01:59:18.397Z,0
2017-07-12T02:00:18.391Z,0
2017-07-12T02:01:18.686Z,0
2017-07-12T02:02:18.677Z,0
2017-07-12T02:03:18.678Z,0
2017-07-12T02:04:18.040Z,0
2017-07-12T02:05:18.648Z,0
2017-07-12T02:06:18.316Z,0
2017-07-12T02:07:18.313Z,0
2017-07-12T02:08:18.615Z,0
2017-07-12T02:09:17.670Z,0
2017-07-12T02:10:18.585Z,0
2017-07-12T02:11:18.269Z,0
2017-07-12T02:12:18.621Z,0
2017-07-12T02:13:18.550Z,0
2017-07-12T02:14:18.533Z,0
2017-07-12T02:15:18.540Z,0
2017-07-12T02:16:18.205Z,0
2017-07-12T02:17:18.195Z,0
2017-07-12T02:18:18.195Z,0
2017-07-12T02:19:18.183Z,0
2017-07-12T02:20:18.160Z,0
2017-07-12T02:21:17.847Z,0
2017-07-12T02:22:18.449Z,0
2017-07-12T02:23:17.512Z,0
2017-07-12T02:24:18.124Z,0
2017-07-12T02:25:18.434Z,0
2017-07-12T02:26:17.780Z,0
2017-07-12T02:27:18.082Z,0
2017-07-12T02:28:18.382Z,0
2017-07-12T02:29:18.381Z,0
2017-07-12T02:30:18.352Z,0
2017-07-12T02:31:18.046Z,0
2017-07-12T02:32:18.348Z,0
2017-07-12T02:33:18.013Z,0
2017-07-12T02:34:18.317Z,0
2017-07-12T02:35:18.301Z,0
2017-07-12T02:36:17.979Z,0
2017-07-12T02:37:17.971Z,0
2017-07-12T02:38:17.978Z,0
2017-07-12T02:39:18.268Z,0
2017-07-12T02:40:18.258Z,0
2017-07-12T02:41:17.625Z,0
2017-07-12T02:42:17.614Z,0
2017-07-12T02:43:17.899Z,0
2017-07-12T02:44:17.905Z,0
2017-07-12T02:45:18.183Z,0
2017-07-12T02:46:17.881Z,0
2017-07-12T02:47:17.860Z,0
2017-07-12T02:48:17.857Z,0
2017-07-12T02:49:17.833Z,0
2017-07-12T02:50:17.829Z,0
2017-07-12T02:51:17.821Z,0
2017-07-12T02:52:18.129Z,0
2017-07-12T02:53:18.094Z,0
2017-07-12T02:54:18.109Z,0
2017-07-12T02:55:18.089Z,0
2017-07-12T02:56:18.067Z,0
2017-07-12T02:57:18.079Z,4
2017-07-12T02:58:17.757Z,0
2017-07-12T02:59:17.727Z,0
2017-07-12T03:00:18.035Z,4
2017-07-12T03:01:17.715Z,4
2017-07-12T03:02:17.390Z,4
2017-07-12T03:03:17.386Z,4
2017-07-12T03:04:17.369Z,8
2017-07-12T03:05:17.362Z,4
2017-07-12T03:06:17.656Z,8
2017-07-12T03:07:17.637Z,4
2017-07-12T03:08:17.643Z,8
2017-07-12T03:09:17.933Z,8
2017-07-12T03:10:17.615Z,8
2017-07-12T03:11:17.902Z,12
2017-07-12T03:12:17.601Z,12
2017-07-12T03:13:17.584Z,12
2017-07-12T03:14:17.569Z,12
2017-07-12T03:15:17.555Z,20
2017-07-12T03:16:17.852Z,20
2017-07-12T03:17:17.528Z,28
2017-07-12T03:18:17.519Z,32
2017-07-12T03:19:17.199Z,40
2017-07-12T03:20:17.496Z,44
2017-07-12T03:21:17.799Z,48
2017-07-12T03:22:17.473Z,52
2017-07-12T03:23:16.841Z,52
2017-07-12T03:24:17.763Z,56
2017-07-12T03:25:17.756Z,64
2017-07-12T03:26:17.757Z,80
2017-07-12T03:27:17.414Z,80
2017-07-12T03:28:17.718Z,100
2017-07-12T03:29:17.705Z,112
2017-07-12T03:30:17.076Z,120
2017-07-12T03:31:17.680Z,152
2017-07-12T03:32:17.363Z,208
2017-07-12T03:33:17.670Z,280
2017-07-12T03:34:17.643Z,352
2017-07-12T03:35:17.642Z,408
2017-07-12T03:36:17.317Z,432
2017-07-12T03:37:17.620Z,448
2017-07-12T03:38:17.305Z,476
2017-07-12T03:39:17.599Z,492
2017-07-12T03:40:17.284Z,516
2017-07-12T03:41:17.571Z,548
2017-07-12T03:42:17.249Z,616
2017-07-12T03:43:17.554Z,716
2017-07-12T03:44:17.536Z,772
2017-07-12T03:45:16.904Z,816
2017-07-12T03:46:17.209Z,884
2017-07-12T03:47:17.199Z,944
2017-07-12T03:48:17.491Z,1008
2017-07-12T03:49:17.196Z,1116
2017-07-12T03:50:17.477Z,1344
2017-07-12T03:51:17.476Z,1648
2017-07-12T03:52:17.468Z,2036
2017-07-12T03:53:16.815Z,2448
2017-07-12T03:54:17.425Z,2752
2017-07-12T03:55:17.102Z,3032
2017-07-12T03:56:17.087Z,3004
2017-07-12T03:57:17.396Z,2876
2017-07-12T03:58:17.390Z,2528
2017-07-12T03:59:17.368Z,2132
2017-07-12T04:00:17.365Z,1816
2017-07-12T04:01:17.039Z,1740
2017-07-12T04:02:17.030Z,1784
2017-07-12T04:03:17.022Z,1956
2017-07-12T04:04:17.011Z,2340
2017-07-12T04:05:17.305Z,2832
2017-07-12T04:06:16.676Z,3028
2017-07-12T04:07:17.284Z,2808
2017-07-12T04:08:17.270Z,2800
2017-07-12T04:09:17.283Z,2676
2017-07-12T04:10:17.247Z,2316
2017-07-12T04:11:17.255Z,2312
2017-07-12T04:12:16.929Z,2620
2017-07-12T04:13:16.904Z,2880
2017-07-12T04:14:16.895Z,2844
2017-07-12T04:15:16.893Z,2792
2017-07-12T04:16:16.879Z,2868
2017-07-12T04:17:16.873Z,3064
2017-07-12T04:18:17.167Z,3600
2017-07-12T04:19:17.149Z,4104
2017-07-12T04:20:17.158Z,4496
2017-07-12T04:21:17.134Z,5024
2017-07-12T04:22:17.129Z,5440
2017-07-12T04:23:16.179Z,5816
2017-07-12T04:24:16.780Z,6232
2017-07-12T04:25:16.778Z,6168
2017-07-12T04:26:16.785Z,5208
2017-07-12T04:27:16.768Z,4136
2017-07-12T04:28:16.739Z,3624
2017-07-12T04:29:16.742Z,3472
2017-07-12T04:30:16.736Z,3368
2017-07-12T04:31:17.031Z,2904
2017-07-12T04:32:17.019Z,2316
2017-07-12T04:33:16.703Z,2136
2017-07-12T04:34:16.682Z,2300
2017-07-12T04:35:16.977Z,2488
2017-07-12T04:36:16.667Z,2712
2017-07-12T04:37:16.961Z,3092
2017-07-12T04:38:16.940Z,3824
2017-07-12T04:39:16.321Z,4812
2017-07-12T04:40:16.918Z,5720
2017-07-12T04:41:16.920Z,6340
2017-07-12T04:42:16.905Z,6604
2017-07-12T04:43:16.893Z,5788
2017-07-12T04:44:16.563Z,4588
2017-07-12T04:45:16.563Z,5220
2017-07-12T04:46:16.851Z,6504
2017-07-12T04:47:16.847Z,6348
2017-07-12T04:48:16.843Z,6504
2017-07-12T04:49:16.512Z,6504
2017-07-12T04:50:16.502Z,7128
2017-07-12T04:51:16.492Z,6424
2017-07-12T04:52:16.481Z,5008
2017-07-12T04:53:16.483Z,4392
2017-07-12T04:54:16.520Z,4640
2017-07-12T04:55:16.442Z,4452
2017-07-12T04:56:16.740Z,4116
2017-07-12T04:57:16.729Z,3776
2017-07-12T04:58:16.411Z,3592
2017-07-12T04:59:16.723Z,3640
2017-07-12T05:00:16.714Z,4260
2017-07-12T05:01:16.370Z,5012
2017-07-12T05:02:16.361Z,5496
2017-07-12T05:03:16.662Z,5792
2017-07-12T05:04:15.724Z,6500
2017-07-12T05:05:16.650Z,6772
2017-07-12T05:06:16.315Z,7732
2017-07-12T05:07:16.626Z,7968
2017-07-12T05:08:16.616Z,7664
2017-07-12T05:09:16.282Z,8264
2017-07-12T05:10:16.277Z,9564
2017-07-12T05:11:16.586Z,10020
2017-07-12T05:12:16.570Z,8816
2017-07-12T05:13:16.553Z,7536
2017-07-12T05:14:15.929Z,6824
2017-07-12T05:15:16.535Z,6524
2017-07-12T05:16:16.283Z,5956
2017-07-12T05:17:16.522Z,5684
2017-07-12T05:18:16.511Z,6256
2017-07-12T05:19:16.501Z,7224
2017-07-12T05:20:15.872Z,8176
2017-07-12T05:21:16.519Z,9060
2017-07-12T05:22:16.162Z,9452
2017-07-12T05:23:15.516Z,9184
2017-07-12T05:24:16.462Z,8976
2017-07-12T05:25:16.123Z,9276
2017-07-12T05:26:16.481Z,9936
2017-07-12T05:27:16.409Z,9804
2017-07-12T05:28:16.403Z,9096
2017-07-12T05:29:16.076Z,8320
2017-07-12T05:30:16.076Z,7672
2017-07-12T05:31:16.052Z,7216
2017-07-12T05:32:16.046Z,7240
2017-07-12T05:33:16.044Z,7400
2017-07-12T05:34:16.345Z,7232
2017-07-12T05:35:16.033Z,7060
2017-07-12T05:36:16.002Z,7472
2017-07-12T05:37:15.687Z,8200
2017-07-12T05:38:15.993Z,9324
2017-07-12T05:39:16.294Z,12300
2017-07-12T05:40:16.280Z,15012
2017-07-12T05:41:15.974Z,13280
2017-07-12T05:42:15.950Z,11772
2017-07-12T05:43:15.317Z,10932
2017-07-12T05:44:15.927Z,10820
2017-07-12T05:45:15.921Z,12200
2017-07-12T05:46:16.218Z,15916
2017-07-12T05:47:16.212Z,19040
2017-07-12T05:48:16.196Z,23648
2017-07-12T05:49:16.184Z,19744
2017-07-12T05:50:16.179Z,18272
2017-07-12T05:51:16.158Z,25792
2017-07-12T05:52:16.154Z,19008
2017-07-12T05:53:16.131Z,30176
2017-07-12T05:54:16.121Z,27968
2017-07-12T05:55:16.120Z,34304
2017-07-12T05:56:16.116Z,23680
2017-07-12T05:57:15.783Z,23872
2017-07-12T05:58:15.772Z,28096
2017-07-12T05:59:15.461Z,23008
2017-07-12T06:00:16.057Z,22528
2017-07-12T06:01:16.071Z,21408
2017-07-12T06:02:16.048Z,20064
2017-07-12T06:03:16.046Z,18400
2017-07-12T06:04:16.019Z,31552
2017-07-12T06:05:16.015Z,15368
2017-07-12T06:06:15.735Z,14888
2017-07-12T06:07:15.992Z,14036
2017-07-12T06:08:15.976Z,14460
2017-07-12T06:09:15.964Z,13672
2017-07-12T06:10:15.960Z,14420
2017-07-12T06:11:15.954Z,18176
2017-07-12T06:12:15.937Z,45696
2017-07-12T06:13:15.924Z,43616
2017-07-12T06:14:15.922Z,56800
2017-07-12T06:15:15.903Z,59424
2017-07-12T06:16:15.908Z,49568
2017-07-12T06:17:15.894Z,25024
2017-07-12T06:18:15.876Z,43872
2017-07-12T06:19:15.554Z,19232
2017-07-12T06:20:15.857Z,64128
2017-07-12T06:21:15.856Z,58752
2017-07-12T06:22:15.217Z,60000
2017-07-12T06:23:15.204Z,59904
2017-07-12T06:24:15.816Z,23200
2017-07-12T06:25:15.797Z,23680
2017-07-12T06:26:15.789Z,51648
2017-07-12T06:27:15.792Z,35264
2017-07-12T06:28:15.781Z,67104
2017-07-12T06:29:15.755Z,32064
2017-07-12T06:30:15.755Z,28224
2017-07-12T06:31:15.449Z,25568
2017-07-12T06:32:15.439Z,24928
2017-07-12T06:33:15.726Z,23072
2017-07-12T06:34:15.090Z,21696
2017-07-12T06:35:15.398Z,22240
2017-07-12T06:36:15.708Z,23424
2017-07-12T06:37:15.689Z,27808
2017-07-12T06:38:15.696Z,54944
2017-07-12T06:39:15.683Z,56224
2017-07-12T06:40:15.730Z,35328
2017-07-12T06:41:15.654Z,45696
2017-07-12T06:42:15.648Z,23424
2017-07-12T06:43:15.639Z,27968
2017-07-12T06:44:15.647Z,20288
2017-07-12T06:45:15.623Z,33376
2017-07-12T06:46:15.314Z,19008
2017-07-12T06:47:15.606Z,23168
2017-07-12T06:48:15.287Z,29888
2017-07-12T06:49:15.587Z,23392
2017-07-12T06:50:15.270Z,34144
2017-07-12T06:51:15.268Z,17208
2017-07-12T06:52:15.560Z,45440
2017-07-12T06:53:15.239Z,57536
2017-07-12T06:54:15.540Z,62240
2017-07-12T06:55:15.547Z,56800
2017-07-12T06:56:15.217Z,60704
2017-07-12T06:57:15.518Z,70688
2017-07-12T06:58:15.505Z,70336
2017-07-12T06:59:15.506Z,70176
2017-07-12T07:00:15.502Z,69376
2017-07-12T07:01:15.490Z,58048
2017-07-12T07:02:15.181Z,61472
2017-07-12T07:03:15.471Z,64992
2017-07-12T07:04:15.453Z,66240
2017-07-12T07:05:15.444Z,68864
2017-07-12T07:06:15.440Z,72032
2017-07-12T07:07:15.114Z,74080
2017-07-12T07:08:15.423Z,79680
2017-07-12T07:09:15.429Z,80064
2017-07-12T07:10:15.411Z,74112
2017-07-12T07:11:15.404Z,71936
2017-07-12T07:12:14.780Z,74688
2017-07-12T07:13:15.069Z,81824
2017-07-12T07:14:15.388Z,84128
2017-07-12T07:15:15.053Z,79040
2017-07-12T07:16:15.048Z,78976
2017-07-12T07:17:15.357Z,45984
2017-07-12T07:18:15.344Z,39616
2017-07-12T07:19:15.343Z,29280
2017-07-12T07:20:15.023Z,43200
2017-07-12T07:21:14.700Z,32800
2017-07-12T07:22:15.000Z,30304
2017-07-12T07:23:14.691Z,36992
2017-07-12T07:24:15.301Z,90944
2017-07-12T07:25:14.977Z,97280
2017-07-12T07:26:15.290Z,90496
2017-07-12T07:27:15.280Z,83264
2017-07-12T07:28:15.284Z,88704
2017-07-12T07:29:14.951Z,99328
2017-07-12T07:30:14.958Z,78496
2017-07-12T07:31:15.250Z,36192
2017-07-12T07:32:14.628Z,59328
2017-07-12T07:33:15.239Z,72768
2017-07-12T07:34:15.226Z,72960
2017-07-12T07:35:14.595Z,72576
2017-07-12T07:36:15.212Z,26080
2017-07-12T07:37:15.198Z,24160
2017-07-12T07:38:15.186Z,34624
2017-07-12T07:39:15.194Z,85312
2017-07-12T07:40:14.871Z,94688
2017-07-12T07:41:15.182Z,86560
2017-07-12T07:42:15.172Z,93312
2017-07-12T07:43:14.849Z,88896
2017-07-12T07:44:14.857Z,97536
2017-07-12T07:45:15.150Z,119808
2017-07-12T07:46:15.146Z,59392
2017-07-12T07:47:15.127Z,48736
2017-07-12T07:48:15.115Z,45408
2017-07-12T07:49:15.120Z,80096
2017-07-12T07:50:14.495Z,113056
2017-07-12T07:51:15.099Z,109088
2017-07-12T07:52:14.796Z,47904
2017-07-12T07:53:14.791Z,67136
2017-07-12T07:54:15.096Z,69504
2017-07-12T07:55:14.777Z,110432
2017-07-12T07:56:15.077Z,55712
2017-07-12T07:57:15.087Z,103968
2017-07-12T07:58:15.068Z,83904
2017-07-12T07:59:14.749Z,53536
2017-07-12T08:00:15.057Z,54528
2017-07-12T08:01:15.045Z,69088
2017-07-12T08:02:15.047Z,74336
2017-07-12T08:03:14.422Z,74048
2017-07-12T08:04:15.096Z,58336
2017-07-12T08:05:15.024Z,59328
2017-07-12T08:06:14.706Z,53632
2017-07-12T08:07:15.012Z,59744
2017-07-12T08:08:15.010Z,48352
2017-07-12T08:09:14.988Z,48704
2017-07-12T08:10:14.987Z,39840
2017-07-12T08:11:14.680Z,44576
2017-07-12T08:12:14.051Z,52672
2017-07-12T08:13:14.991Z,53248
2017-07-12T08:14:14.338Z,58176
2017-07-12T08:15:14.956Z,84288
2017-07-12T08:16:14.328Z,56192
2017-07-12T08:17:14.635Z,107456
2017-07-12T08:18:14.925Z,60992
2017-07-12T08:19:14.923Z,81888
2017-07-12T08:20:14.594Z,52704
2017-07-12T08:21:14.899Z,103456
2017-07-12T08:22:14.593Z,55232
2017-07-12T08:23:14.262Z,57472
2017-07-12T08:24:14.873Z,78752
2017-07-12T08:25:14.874Z,61248
2017-07-12T08:26:14.855Z,66176
2017-07-12T08:27:14.552Z,58080
2017-07-12T08:28:14.834Z,69120
2017-07-12T08:29:14.527Z,65824
2017-07-12T08:30:14.526Z,64160
2017-07-12T08:31:14.524Z,76672
2017-07-12T08:32:14.823Z,122560
2017-07-12T08:33:14.813Z,75488
2017-07-12T08:34:14.527Z,63520
2017-07-12T08:35:14.166Z,62432
2017-07-12T08:36:14.789Z,99456
2017-07-12T08:37:14.468Z,135808
2017-07-12T08:38:14.155Z,64160
2017-07-12T08:39:14.445Z,68960
2017-07-12T08:40:14.751Z,62336
2017-07-12T08:41:14.746Z,63328
2017-07-12T08:42:14.738Z,77984
2017-07-12T08:43:14.722Z,69120
2017-07-12T08:44:14.722Z,115072
2017-07-12T08:45:14.398Z,61312
2017-07-12T08:46:14.713Z,87360
2017-07-12T08:47:14.070Z,85248
2017-07-12T08:48:14.698Z,68832
2017-07-12T08:49:14.373Z,65280
2017-07-12T08:50:14.368Z,75040
2017-07-12T08:51:14.691Z,65536
2017-07-12T08:52:14.344Z,55104
2017-07-12T08:53:14.349Z,54880
2017-07-12T08:54:14.640Z,56704
2017-07-12T08:55:14.328Z,39392
2017-07-12T08:56:14.323Z,26400
2017-07-12T08:57:14.624Z,28608
2017-07-12T08:58:14.312Z,47200
2017-07-12T08:59:14.618Z,67904
2017-07-12T09:00:14.595Z,40000
2017-07-12T09:01:14.610Z,28064
2017-07-12T09:02:14.595Z,31744
2017-07-12T09:03:14.268Z,36960
2017-07-12T09:04:13.963Z,50272
2017-07-12T09:05:14.577Z,82528
2017-07-12T09:06:14.566Z,89792
2017-07-12T09:07:14.248Z,50112
2017-07-12T09:08:14.546Z,38016
2017-07-12T09:09:14.536Z,35808
2017-07-12T09:10:14.539Z,30464
2017-07-12T09:11:14.538Z,73760
2017-07-12T09:12:13.901Z,132576
2017-07-12T09:13:14.519Z,52896
2017-07-12T09:14:14.502Z,74720
2017-07-12T09:15:14.505Z,65312
2017-07-12T09:16:14.504Z,75520
2017-07-12T09:17:14.197Z,151232
2017-07-12T09:18:14.491Z,92928
2017-07-12T09:19:14.494Z,59456
2017-07-12T09:20:14.470Z,80096
2017-07-12T09:21:14.149Z,104544
2017-07-12T09:22:13.836Z,120736
2017-07-12T09:23:14.144Z,90752
2017-07-12T09:33:14.088Z,148448
2017-07-12T09:34:13.775Z,129728
2017-07-12T09:35:14.089Z,109920
2017-07-12T09:36:14.074Z,111456
2017-07-12T09:37:14.068Z,112512
2017-07-12T09:38:14.376Z,53920
2017-07-12T09:39:14.068Z,103648
2017-07-12T09:40:14.360Z,107040
2017-07-12T09:41:14.037Z,47424
2017-07-12T09:42:14.036Z,31072
2017-07-12T09:43:14.047Z,103840
2017-07-12T09:44:14.034Z,104800
2017-07-12T09:45:14.032Z,112032
2017-07-12T09:46:14.338Z,80544
2017-07-12T09:47:14.024Z,23776
2017-07-12T09:48:14.016Z,31456
2017-07-12T09:49:14.324Z,35616
2017-07-12T09:50:13.996Z,36416
2017-07-12T09:51:14.309Z,45504
2017-07-12T09:52:13.683Z,44896
2017-07-12T09:53:14.317Z,108864
2017-07-12T09:54:14.287Z,111136
2017-07-12T09:55:14.281Z,26720
2017-07-12T09:56:13.970Z,30912
2017-07-12T09:57:13.960Z,111904
2017-07-12T09:58:13.947Z,73984
2017-07-12T09:59:13.635Z,44608
2017-07-12T10:00:13.952Z,51168
2017-07-12T10:01:14.261Z,97856
2017-07-12T10:02:14.238Z,107296
2017-07-12T10:03:13.935Z,32256
2017-07-12T10:04:13.617Z,43872
2017-07-12T10:05:14.226Z,41824
2017-07-12T10:06:13.909Z,124800
2017-07-12T10:07:13.600Z,110816
2017-07-12T10:08:14.213Z,114304
2017-07-12T10:09:14.212Z,37408
2017-07-12T10:10:14.200Z,51296
2017-07-12T10:11:13.891Z,26016
2017-07-12T10:12:14.206Z,30016
2017-07-12T10:13:14.182Z,45952
2017-07-12T10:14:14.185Z,124224
2017-07-12T10:15:14.194Z,127552
2017-07-12T10:16:14.168Z,63936
2017-07-12T10:17:13.846Z,33536
2017-07-12T10:18:13.536Z,122272
2017-07-12T10:19:13.837Z,121344
2017-07-12T10:20:13.848Z,102592
2017-07-12T10:21:13.526Z,133952
2017-07-12T10:22:13.831Z,116736
2017-07-12T10:23:13.191Z,60672
2017-07-12T10:24:13.814Z,129920
2017-07-12T10:25:14.121Z,127296
2017-07-12T10:26:14.107Z,129472
2017-07-12T10:27:14.106Z,143616
2017-07-12T10:28:14.100Z,156320
2017-07-12T10:29:13.783Z,88640
2017-07-12T10:30:14.135Z,58048
2017-07-12T10:31:13.772Z,107424
2017-07-12T10:32:13.452Z,65024
2017-07-12T10:33:14.087Z,166688
2017-07-12T10:34:14.068Z,123360
2017-07-12T10:35:14.053Z,45216
2017-07-12T10:36:13.749Z,37824
2017-07-12T10:37:13.747Z,39488
2017-07-12T10:38:13.732Z,40224
2017-07-12T10:39:13.106Z,34432
2017-07-12T10:40:13.716Z,42464
2017-07-12T10:41:13.724Z,48064
2017-07-12T10:42:14.014Z,55840
2017-07-12T10:43:13.395Z,63584
2017-07-12T10:44:13.698Z,53472
2017-07-12T10:45:13.372Z,43776
2017-07-12T10:46:13.675Z,64992
2017-07-12T10:47:13.363Z,49696
2017-07-12T10:48:13.665Z,40736
2017-07-12T10:49:13.661Z,34688
2017-07-12T10:50:13.662Z,36928
2017-07-12T10:51:13.658Z,53952
2017-07-12T10:52:13.644Z,63680
2017-07-12T10:53:13.954Z,74912
2017-07-12T10:54:13.321Z,50432
2017-07-12T10:55:13.923Z,61664
2017-07-12T10:56:13.303Z,38688
2017-07-12T10:57:13.913Z,32960
2017-07-12T10:58:13.590Z,33632
2017-07-12T10:59:13.583Z,42272
2017-07-12T11:00:13.569Z,35648
2017-07-12T11:01:13.879Z,30208
2017-07-12T11:02:13.282Z,33312
2017-07-12T11:03:13.874Z,32640
2017-07-12T11:04:13.545Z,34144
2017-07-12T11:05:13.861Z,25952
2017-07-12T11:06:13.529Z,21792
2017-07-12T11:07:13.846Z,28096
2017-07-12T11:08:13.521Z,46048
2017-07-12T11:09:13.502Z,108000
2017-07-12T11:10:13.506Z,51712
2017-07-12T11:11:13.796Z,102720
2017-07-12T11:12:13.485Z,127616
2017-07-12T11:13:13.476Z,143744
2017-07-12T11:14:13.467Z,53632
2017-07-12T11:15:13.774Z,47520
2017-07-12T11:16:13.146Z,108384
2017-07-12T11:17:13.455Z,48288
2017-07-12T11:18:13.766Z,61664
2017-07-12T11:19:13.430Z,66176
2017-07-12T11:20:13.727Z,51232
2017-07-12T11:21:13.726Z,68288
2017-07-12T11:22:13.422Z,70720
2017-07-12T11:23:12.790Z,53056
2017-07-12T11:24:13.708Z,63776
2017-07-12T11:25:13.709Z,64704
2017-07-12T11:26:13.707Z,33152
2017-07-12T11:27:13.694Z,38080
2017-07-12T11:28:13.710Z,33920
2017-07-12T11:29:13.675Z,42240
2017-07-12T11:30:13.672Z,52992
2017-07-12T11:31:13.666Z,48128
2017-07-12T11:32:13.685Z,27584
2017-07-12T11:33:13.647Z,30272
2017-07-12T11:34:13.328Z,35680
2017-07-12T11:35:13.644Z,30048
2017-07-12T11:36:13.622Z,28224
2017-07-12T11:37:12.994Z,29024
2017-07-12T11:38:13.612Z,37408
2017-07-12T11:39:13.301Z,101792
2017-07-12T11:40:13.283Z,151872
2017-07-12T11:41:13.283Z,146240
2017-07-12T11:42:13.581Z,143808
2017-07-12T11:43:13.562Z,140352
2017-07-12T11:44:13.252Z,140608
2017-07-12T11:45:13.541Z,146144
2017-07-12T11:46:13.548Z,76480
2017-07-12T11:47:13.235Z,90368
2017-07-12T11:48:13.218Z,126912
2017-07-12T11:49:13.526Z,108448
2017-07-12T11:50:13.517Z,129568
2017-07-12T11:51:13.510Z,69216
2017-07-12T11:52:13.497Z,82272
2017-07-12T11:53:13.496Z,67200
2017-07-12T11:54:13.497Z,54400
2017-07-12T11:55:12.868Z,115232
2017-07-12T11:56:13.169Z,138048
2017-07-12T11:57:13.166Z,128928
2017-07-12T11:58:13.146Z,138560
2017-07-12T11:59:13.469Z,64000
2017-07-12T12:00:12.832Z,123392
2017-07-12T12:01:13.132Z,127744
2017-07-12T12:02:13.441Z,132992
2017-07-12T12:03:13.131Z,192864
2017-07-12T12:04:13.122Z,122016
2017-07-12T12:05:13.417Z,138400
2017-07-12T12:06:12.787Z,85696
2017-07-12T12:07:13.098Z,52096
2017-07-12T12:08:12.785Z,87264
2017-07-12T12:09:13.410Z,56704
2017-07-12T12:10:13.400Z,70272
2017-07-12T12:11:13.075Z,69184
2017-07-12T12:12:13.375Z,90624
2017-07-12T12:13:13.049Z,116384
2017-07-12T12:14:13.358Z,124864
2017-07-12T12:15:13.045Z,123360
2017-07-12T12:16:13.348Z,114368
2017-07-12T12:17:12.728Z,144704
2017-07-12T12:18:12.715Z,107712
2017-07-12T12:19:12.408Z,121472
2017-07-12T12:20:13.027Z,66112
2017-07-12T12:21:13.325Z,63968
2017-07-12T12:22:12.695Z,67040
2017-07-12T12:23:12.686Z,25024
2017-07-12T12:24:13.295Z,20032
2017-07-12T12:25:12.979Z,30688
2017-07-12T12:26:12.976Z,48992
2017-07-12T12:27:13.280Z,145536
2017-07-12T12:28:13.283Z,35840
2017-07-12T12:29:13.260Z,28704
2017-07-12T12:30:13.261Z,21888
2017-07-12T12:31:12.636Z,22304
2017-07-12T12:32:12.622Z,18912
2017-07-12T12:33:12.616Z,25568
2017-07-12T12:34:12.607Z,28320
2017-07-12T12:35:12.287Z,21184
2017-07-12T12:36:13.211Z,14420
2017-07-12T12:37:12.587Z,12908
2017-07-12T12:38:13.194Z,13016
2017-07-12T12:39:13.182Z,10976
2017-07-12T12:40:13.176Z,7832
2017-07-12T12:41:12.543Z,7056
2017-07-12T12:42:12.542Z,5548
2017-07-12T12:43:12.851Z,6168
2017-07-12T12:44:13.159Z,10196
2017-07-12T12:45:12.832Z,11288
2017-07-12T12:46:13.123Z,14728
2017-07-12T12:47:13.111Z,22944
2017-07-12T12:48:13.255Z,16468
2017-07-12T12:49:13.102Z,28256
2017-07-12T12:50:13.111Z,34880
2017-07-12T12:51:12.169Z,24160
2017-07-12T12:52:12.770Z,39488
2017-07-12T12:53:13.287Z,40768
2017-07-12T12:54:13.068Z,41984
2017-07-12T12:55:13.052Z,33184
2017-07-12T12:56:13.057Z,55648
2017-07-12T12:57:12.735Z,35232
2017-07-12T12:58:13.263Z,33056
2017-07-12T12:59:13.027Z,40192
2017-07-12T13:00:13.101Z,47808
2017-07-12T13:01:13.008Z,56256
2017-07-12T13:02:12.679Z,45536
2017-07-12T13:03:12.877Z,41856
2017-07-12T13:04:12.357Z,26016
2017-07-12T13:05:12.645Z,28032
2017-07-12T13:06:12.644Z,57664
2017-07-12T13:07:12.944Z,32640
2017-07-12T13:08:12.946Z,23008
2017-07-12T13:09:13.161Z,28384
2017-07-12T13:10:12.935Z,26240
2017-07-12T13:11:12.904Z,23360
2017-07-12T13:12:12.891Z,16148
2017-07-12T13:13:12.890Z,12144
2017-07-12T13:14:12.873Z,10312
2017-07-12T13:15:12.247Z,10976
2017-07-12T13:16:12.867Z,19392
2017-07-12T13:17:12.233Z,15604
2017-07-12T13:18:12.534Z,13324
2017-07-12T13:19:12.516Z,39072
2017-07-12T13:20:12.822Z,25248
2017-07-12T13:21:12.820Z,32928
2017-07-12T13:22:12.801Z,35744
2017-07-12T13:23:11.861Z,35424
2017-07-12T13:24:12.779Z,36160
2017-07-12T13:25:12.778Z,68672
2017-07-12T13:26:12.450Z,136480
2017-07-12T13:27:12.442Z,42144
2017-07-12T13:28:12.745Z,39648
2017-07-12T13:29:12.733Z,36480
2017-07-12T13:30:12.729Z,41632